Audubon County Airport


Codes: KADU/
Name: Audubon County Airport
City: Audubon
Country: United States
Elevation: 1287 ft.

Photos at Audubon County Airport


   Photos courtesy of SpottingLog. You can add your own sightings and photos by signing up for a free trial today.



No photos found.

Weather at Audubon County Airport


Time (UTC)DescriptionTempratureWindCloud coverageVisibilityPressureHumidity
26-Jun-2024 00:00Light Rain31°C4 mph, NE100%10000m1009hPa74%
26-Jun-2024 03:00Moderate Rain29°C9 mph, NE89%10000m1009hPa80%
26-Jun-2024 06:00Heavy Intensity Rain23°C4 mph, E89%2835m1010hPa89%
26-Jun-2024 09:00Light Rain19°C4 mph, E93%10000m1010hPa98%
26-Jun-2024 12:00Broken Clouds19°C11 mph, N56%10000m1012hPa95%
26-Jun-2024 15:00Clear Sky22°C18 mph, NE0%10000m1014hPa80%
26-Jun-2024 18:00Clear Sky24°C13 mph, NE0%10000m1014hPa63%
26-Jun-2024 21:00Clear Sky26°C9 mph, NE0%10000m1014hPa60%
27-Jun-2024 00:00Clear Sky23°C9 mph, NE2%10000m1014hPa74%
27-Jun-2024 03:00Clear Sky18°C7 mph, NE3%10000m1015hPa88%
27-Jun-2024 06:00Scattered Clouds17°C7 mph, NE27%10000m1016hPa90%
27-Jun-2024 09:00Broken Clouds16°C7 mph, E81%10000m1015hPa90%
27-Jun-2024 12:00Broken Clouds16°C7 mph, E84%10000m1015hPa90%
27-Jun-2024 15:00Overcast Clouds18°C7 mph, SE100%10000m1015hPa88%
27-Jun-2024 18:00Overcast Clouds19°C9 mph, SE100%10000m1013hPa88%
27-Jun-2024 21:00Overcast Clouds22°C11 mph, SE100%10000m1011hPa81%
28-Jun-2024 00:00Overcast Clouds22°C13 mph, S88%10000m1008hPa82%
28-Jun-2024 03:00Overcast Clouds21°C13 mph, S100%10000m1007hPa84%
28-Jun-2024 06:00Overcast Clouds20°C11 mph, SE100%10000m1005hPa78%
28-Jun-2024 09:00Light Rain20°C16 mph, S100%7558m1003hPa92%
28-Jun-2024 12:00Light Rain19°C13 mph, S100%7841m1002hPa98%
28-Jun-2024 15:00Light Rain21°C13 mph, S100%3541m1002hPa98%
28-Jun-2024 18:00Light Rain21°C9 mph, N100%0m1002hPa98%
28-Jun-2024 21:00Light Rain27°C11 mph, W86%10000m1001hPa78%
29-Jun-2024 00:00Light Rain25°C13 mph, NW73%10000m1003hPa81%
29-Jun-2024 03:00Broken Clouds22°C9 mph, NW57%10000m1007hPa80%
29-Jun-2024 06:00Broken Clouds19°C7 mph, NW68%10000m1009hPa91%
29-Jun-2024 09:00Scattered Clouds16°C9 mph, NW35%10000m1012hPa83%
29-Jun-2024 12:00Few Clouds15°C16 mph, NW18%10000m1015hPa77%
29-Jun-2024 15:00Clear Sky16°C20 mph, NW0%10000m1019hPa73%
29-Jun-2024 18:00Clear Sky18°C16 mph, NW0%10000m1021hPa66%
29-Jun-2024 21:00Clear Sky19°C13 mph, N0%10000m1021hPa63%
30-Jun-2024 00:00Clear Sky18°C9 mph, N0%10000m1022hPa73%
30-Jun-2024 03:00Clear Sky14°C7 mph, NE0%10000m1024hPa87%
30-Jun-2024 06:00Clear Sky12°C7 mph, NE0%10000m1027hPa91%
30-Jun-2024 09:00Clear Sky10°C7 mph, E0%10000m1027hPa95%
30-Jun-2024 12:00Clear Sky10°C7 mph, E0%10000m1027hPa92%
30-Jun-2024 15:00Clear Sky15°C9 mph, E0%10000m1027hPa71%
30-Jun-2024 18:00Clear Sky19°C9 mph, SE1%10000m1025hPa62%
30-Jun-2024 21:00Scattered Clouds21°C11 mph, SE31%10000m1023hPa62%